createdAt,value
2022-09-20T00:02:37.583Z,81.75
2022-09-20T00:08:57.562Z,82.36
2022-09-20T00:15:20.586Z,82.79
2022-09-20T00:21:40.600Z,83.18
2022-09-20T00:28:03.572Z,83.1
2022-09-20T00:34:23.617Z,83.47
2022-09-20T00:40:46.581Z,83.91
2022-09-20T00:47:06.593Z,84.02
2022-09-20T00:53:29.584Z,84.31
2022-09-20T00:59:49.577Z,84.6
2022-09-20T01:06:12.553Z,84.98
2022-09-20T01:12:32.614Z,85.27
2022-09-20T01:18:55.564Z,85.45
2022-09-20T01:25:15.600Z,85.69
2022-09-20T01:31:38.633Z,85.97
2022-09-20T01:37:58.590Z,85.72
2022-09-20T01:44:21.571Z,85.62
2022-09-20T01:50:41.581Z,85.41
2022-09-20T01:57:04.612Z,85.61
2022-09-20T02:03:24.561Z,85.88
2022-09-20T02:09:47.595Z,86.18
2022-09-20T02:16:07.586Z,86.09
2022-09-20T02:22:30.585Z,86.03
2022-09-20T02:28:50.596Z,86.25
2022-09-20T02:35:13.585Z,86.32
2022-09-20T02:41:33.572Z,86.38
2022-09-20T02:47:56.616Z,86.06
2022-09-20T02:54:16.571Z,86
2022-09-20T03:00:39.558Z,86.01
2022-09-20T03:06:59.626Z,86.31
2022-09-20T03:13:22.560Z,86.32
2022-09-20T03:19:42.608Z,86.03
2022-09-20T03:26:05.588Z,85.95
2022-09-20T03:32:25.594Z,86.15
2022-09-20T03:49:12.567Z,86.5
2022-09-20T03:55:32.554Z,86.57
2022-09-20T04:01:55.599Z,86.9
2022-09-20T04:08:15.585Z,86.98
2022-09-20T04:14:38.566Z,86.72
2022-09-20T04:20:58.576Z,86.6
2022-09-20T04:27:21.591Z,86.5
2022-09-20T04:33:41.620Z,86.54
2022-09-20T04:40:04.586Z,86.25
2022-09-20T04:46:24.648Z,86.37
2022-09-20T04:52:47.614Z,86.42
2022-09-20T04:59:07.770Z,86.76
2022-09-20T05:05:30.601Z,86.42
2022-09-20T05:11:50.571Z,86.5
2022-09-20T05:18:13.598Z,86.65
2022-09-20T05:24:33.608Z,87.22
2022-09-20T05:30:56.624Z,87.12
2022-09-20T05:37:16.612Z,87
2022-09-20T05:43:39.594Z,86.89
2022-09-20T05:49:59.610Z,87.19
2022-09-20T05:56:22.598Z,86.89
2022-09-20T06:02:42.622Z,86.98
2022-09-20T06:09:05.602Z,86.15
2022-09-20T06:15:25.568Z,85.64
2022-09-20T06:21:48.602Z,85.2
2022-09-20T06:28:08.624Z,84.56
2022-09-20T06:34:31.592Z,83.96
2022-09-20T06:40:51.618Z,84.06
2022-09-20T06:47:14.591Z,83.76
2022-09-20T06:53:34.565Z,83.31
2022-09-20T06:59:57.602Z,83.12
2022-09-20T07:06:17.580Z,83.5
2022-09-20T07:12:40.571Z,83.24
2022-09-20T07:19:00.603Z,82.94
2022-09-20T07:25:23.590Z,82.15
2022-09-20T07:31:43.605Z,81.72
2022-09-20T07:38:06.618Z,81.22
2022-09-20T07:44:26.562Z,80.56
2022-09-20T07:50:49.583Z,79.53
2022-09-20T07:57:09.620Z,79.18
2022-09-20T08:03:32.574Z,77.53
2022-09-20T08:09:52.577Z,77.25
2022-09-20T08:16:15.627Z,76.96
2022-09-20T08:22:35.580Z,74.67
2022-09-20T08:28:58.567Z,73.54
2022-09-20T08:35:18.613Z,74.31
2022-09-20T08:41:41.594Z,73.61
2022-09-20T08:48:01.639Z,71.64
2022-09-20T08:54:24.741Z,68.67
2022-09-20T09:10:50.523Z,68.87
2022-09-20T09:17:10.576Z,69.49
2022-09-20T09:23:33.598Z,67.92
2022-09-20T09:29:53.599Z,66.32
2022-09-20T09:36:16.599Z,62.96
2022-09-20T09:42:36.652Z,61.67
2022-09-20T09:48:59.607Z,64.01
2022-09-20T09:55:19.582Z,63.54
2022-09-20T10:01:42.634Z,62.43
2022-09-20T10:08:02.683Z,59.27
2022-09-20T10:14:25.726Z,59.67
2022-09-20T10:20:45.584Z,62.59
2022-09-20T10:27:08.599Z,61.07
2022-09-20T10:33:28.591Z,61.26
2022-09-20T10:39:51.577Z,61.63
2022-09-20T10:46:31.147Z,63.89
2022-09-20T10:52:34.570Z,64.21
2022-09-20T10:58:54.636Z,62.58
2022-09-20T11:05:17.768Z,60.78
2022-09-20T11:11:37.583Z,61.24
2022-09-20T11:18:00.568Z,62.04
2022-09-20T11:24:20.603Z,60.86
2022-09-20T11:30:43.577Z,59.15
2022-09-20T11:37:03.618Z,55.37
2022-09-20T11:43:26.713Z,56.94
2022-09-20T11:49:46.588Z,58.95
2022-09-20T11:56:09.567Z,58.44
2022-09-20T12:02:30.916Z,58.94
2022-09-20T12:08:53.576Z,60.38
2022-09-20T12:15:13.558Z,59.54
2022-09-20T12:21:36.613Z,60.03
2022-09-20T12:27:56.574Z,62.45
2022-09-20T12:34:19.577Z,60.57
2022-09-20T12:40:39.699Z,60.11
2022-09-20T12:47:02.566Z,61.54
2022-09-20T12:53:22.576Z,61.37
2022-09-20T12:59:45.619Z,61.57
2022-09-20T13:06:05.605Z,59.76
2022-09-20T13:12:28.572Z,59.93
2022-09-20T13:18:48.638Z,59.49
2022-09-20T13:25:11.679Z,58.94
2022-09-20T13:31:31.664Z,59.3
2022-09-20T13:37:54.644Z,57.86
2022-09-20T13:44:14.563Z,56.36
2022-09-20T13:50:39.273Z,55.63
2022-09-20T13:56:57.591Z,53.67
2022-09-20T14:03:20.568Z,52.56
2022-09-20T14:09:40.597Z,53.01
2022-09-20T14:16:03.601Z,54.41
2022-09-20T14:22:23.599Z,54.81
2022-09-20T14:39:27.534Z,60.56
2022-09-20T14:45:47.648Z,61.14
2022-09-20T14:52:10.593Z,60.35
2022-09-20T14:58:30.610Z,59.75
2022-09-20T15:04:53.576Z,59.72
2022-09-20T15:11:13.581Z,59.53
2022-09-20T15:17:36.589Z,58.74
2022-09-20T15:23:56.559Z,58.81
2022-09-20T15:30:19.581Z,59.51
2022-09-20T15:36:39.613Z,59.7
2022-09-20T15:43:02.742Z,58.97
2022-09-20T15:49:22.756Z,58.67
2022-09-20T15:55:46.806Z,59.04
2022-09-20T16:02:06.599Z,58.72
2022-09-20T16:08:29.574Z,59.91
2022-09-20T16:14:49.625Z,60.39
2022-09-20T16:21:12.569Z,61.41
2022-09-20T16:27:32.589Z,60.36
2022-09-20T16:33:55.594Z,60.51
2022-09-20T16:40:15.617Z,61.26
2022-09-20T16:46:38.581Z,62.73
2022-09-20T16:52:58.626Z,62.03
2022-09-20T16:59:21.588Z,62.36
2022-09-20T17:05:41.592Z,62.84
2022-09-20T17:12:04.582Z,63.41
2022-09-20T17:18:24.582Z,64.66
2022-09-20T17:24:47.559Z,64.8
2022-09-20T17:31:07.607Z,67.36
2022-09-20T17:37:30.567Z,69.18
2022-09-20T17:43:50.574Z,73.49
2022-09-20T17:50:13.587Z,73.57
2022-09-20T17:56:33.560Z,69.45
2022-09-20T18:02:56.580Z,72.83
2022-09-20T18:09:16.587Z,73.53
2022-09-20T18:15:39.582Z,74.54
2022-09-20T18:21:59.551Z,75.95
2022-09-20T18:28:22.584Z,76.43
2022-09-20T18:34:42.606Z,75.33
2022-09-20T18:41:05.572Z,75.68
2022-09-20T18:47:25.617Z,76.85
2022-09-20T18:53:48.557Z,77.48
2022-09-20T19:00:08.723Z,78.69
2022-09-20T19:06:31.692Z,79.21
2022-09-20T19:12:51.570Z,79.31
2022-09-20T19:19:14.576Z,79.08
2022-09-20T19:25:34.589Z,79.82
2022-09-20T19:31:57.597Z,80.42
2022-09-20T19:38:17.612Z,81.12
2022-09-20T19:44:40.638Z,81.23
2022-09-20T20:07:28.114Z,81.24
2022-09-20T20:13:47.566Z,81.43
2022-09-20T20:20:10.582Z,81.31
2022-09-20T20:26:30.613Z,82.31
2022-09-20T20:32:53.578Z,82.31
2022-09-20T20:39:13.568Z,82.53
2022-09-20T20:45:36.573Z,82.56
2022-09-20T20:51:56.621Z,82.86
2022-09-20T20:58:19.574Z,82.45
2022-09-20T21:04:39.589Z,83
2022-09-20T21:11:02.568Z,82.9
2022-09-20T21:17:22.577Z,82.57
2022-09-20T21:23:45.614Z,82.53
2022-09-20T21:30:05.570Z,82.6
2022-09-20T21:36:28.561Z,82.77
2022-09-20T21:42:48.601Z,83.55
2022-09-20T21:49:11.561Z,83.48
2022-09-20T21:55:31.591Z,83.26
2022-09-20T22:19:49.583Z,83.52
2022-09-20T22:26:09.572Z,84.35
2022-09-20T22:32:32.581Z,84.2
2022-09-20T22:38:52.625Z,83.64
2022-09-20T22:45:15.585Z,83.43
2022-09-20T22:51:35.616Z,83.53
2022-09-20T22:57:58.580Z,83.31
2022-09-20T23:04:18.562Z,83.3
2022-09-20T23:10:41.555Z,83.34
2022-09-20T23:17:01.652Z,83.25
2022-09-20T23:23:24.580Z,83.95
2022-09-20T23:29:44.581Z,84.61
2022-09-20T23:36:07.679Z,84.85
2022-09-20T23:42:27.571Z,84.88
2022-09-20T23:48:50.629Z,84.41
2022-09-20T23:55:10.596Z,84.65
